createdAt,value
2023-02-17T00:00:56.705Z,15.82
2023-02-17T00:03:26.364Z,14.27
2023-02-17T00:05:54.300Z,11.23
2023-02-17T00:08:22.171Z,10.75
2023-02-17T00:10:57.618Z,13.40
2023-02-17T00:13:25.598Z,13.10
2023-02-17T00:15:53.703Z,14.68
2023-02-17T00:18:21.791Z,14.10
2023-02-17T00:20:51.291Z,13.85
2023-02-17T00:23:19.316Z,16.63
2023-02-17T00:25:47.177Z,9.85
2023-02-17T00:28:15.263Z,15.60
2023-02-17T00:30:43.061Z,12.57
2023-02-17T00:33:12.865Z,13.32
2023-02-17T00:35:42.595Z,13.45
2023-02-17T00:38:11.856Z,11.07
2023-02-17T00:40:39.912Z,9.70
2023-02-17T00:43:08.041Z,11.77
2023-02-17T00:45:35.889Z,11.82
2023-02-17T00:48:03.730Z,9.10
2023-02-17T00:50:31.595Z,10.85
2023-02-17T00:52:59.466Z,11.55
2023-02-17T00:55:28.661Z,9.32
2023-02-17T00:57:56.521Z,7.15
2023-02-17T01:00:24.599Z,9.75
2023-02-17T01:02:54.241Z,6.65
2023-02-17T01:05:22.137Z,8.52
2023-02-17T01:07:49.916Z,11.52
2023-02-17T01:10:18.016Z,7.63
2023-02-17T01:12:47.184Z,8.57
2023-02-17T01:15:15.329Z,6.05
2023-02-17T01:17:43.770Z,6.40
2023-02-17T01:20:12.045Z,6.25
2023-02-17T01:22:40.646Z,9.35
2023-02-17T01:25:09.219Z,8.13
2023-02-17T01:27:37.363Z,6.32
2023-02-17T01:30:07.697Z,7.93
2023-02-17T01:32:35.493Z,5.38
2023-02-17T01:35:03.340Z,5.85
2023-02-17T01:37:33.425Z,6.80
2023-02-17T01:40:01.323Z,5.88
2023-02-17T01:42:29.104Z,7.38
2023-02-17T01:45:34.060Z,7.00
2023-02-17T01:48:07.107Z,8.27
2023-02-17T01:50:38.356Z,6.65
2023-02-17T01:53:10.227Z,7.28
2023-02-17T01:55:40.222Z,8.23
2023-02-17T01:58:09.881Z,7.20
2023-02-17T02:00:38.367Z,7.00
2023-02-17T02:03:11.662Z,6.93
2023-02-17T02:05:42.348Z,5.68
2023-02-17T02:08:12.168Z,5.97
2023-02-17T02:10:40.651Z,7.75
2023-02-17T02:13:09.486Z,8.38
2023-02-17T02:15:44.355Z,6.97
2023-02-17T02:18:42.925Z,7.05
2023-02-17T02:21:36.499Z,8.10
2023-02-17T02:24:18.672Z,9.90
2023-02-17T02:27:40.324Z,9.50
2023-02-17T02:30:39.611Z,6.47
2023-02-17T02:33:17.746Z,8.10
2023-02-17T02:35:53.943Z,5.93
2023-02-17T02:38:27.896Z,8.60
2023-02-17T02:41:03.589Z,6.90
2023-02-17T02:43:33.000Z,7.90
2023-02-17T02:46:01.014Z,7.57
2023-02-17T02:48:31.006Z,7.55
2023-02-17T02:51:12.566Z,7.35
2023-02-17T02:53:57.346Z,8.38
2023-02-17T02:56:48.442Z,7.43
2023-02-17T02:59:27.374Z,6.07
2023-02-17T03:02:07.730Z,7.30
2023-02-17T03:04:42.773Z,7.10
2023-02-17T03:07:21.078Z,8.82
2023-02-17T03:09:50.327Z,6.90
2023-02-17T03:12:18.833Z,5.85
2023-02-17T03:14:49.267Z,7.03
2023-02-17T03:17:17.967Z,6.13
2023-02-17T03:19:52.090Z,7.95
2023-02-17T03:22:24.371Z,6.30
2023-02-17T03:24:54.709Z,8.18
2023-02-17T03:27:22.685Z,8.63
2023-02-17T03:29:50.500Z,8.05
2023-02-17T03:32:20.646Z,6.97
2023-02-17T03:34:48.578Z,7.65
2023-02-17T03:37:17.779Z,3.95
2023-02-17T03:39:45.732Z,6.43
2023-02-17T03:42:13.492Z,5.88
2023-02-17T03:44:41.413Z,6.25
2023-02-17T03:47:09.356Z,6.65
2023-02-17T03:49:37.187Z,4.45
2023-02-17T03:52:05.428Z,5.47
2023-02-17T03:54:34.624Z,5.68
2023-02-17T03:57:02.484Z,7.95
2023-02-17T03:59:30.547Z,6.20
2023-02-17T04:01:58.363Z,6.00
2023-02-17T04:04:26.253Z,6.75
2023-02-17T04:06:54.049Z,4.70
2023-02-17T04:09:22.026Z,5.10
2023-02-17T04:11:51.195Z,4.40
2023-02-17T04:14:19.100Z,4.85
2023-02-17T04:16:46.927Z,5.45
2023-02-17T04:19:14.633Z,7.00
2023-02-17T04:21:42.443Z,5.15
2023-02-17T04:24:10.264Z,5.07
2023-02-17T04:26:38.066Z,6.80
2023-02-17T04:29:07.236Z,5.30
2023-02-17T04:31:35.186Z,4.13
2023-02-17T04:34:03.066Z,6.07
2023-02-17T04:36:30.871Z,6.20
2023-02-17T04:38:58.670Z,5.68
2023-02-17T04:41:26.622Z,5.10
2023-02-17T04:43:54.522Z,7.22
2023-02-17T04:46:23.766Z,6.35
2023-02-17T04:48:51.756Z,3.75
2023-02-17T04:51:19.644Z,5.93
2023-02-17T04:53:47.413Z,4.82
2023-02-17T04:56:15.662Z,5.10
2023-02-17T04:58:43.692Z,2.65
2023-02-17T05:01:11.568Z,5.32
2023-02-17T05:03:41.995Z,5.20
2023-02-17T05:06:09.879Z,4.63
2023-02-17T05:08:37.760Z,5.93
2023-02-17T05:11:06.577Z,4.35
2023-02-17T05:13:34.560Z,4.20
2023-02-17T05:16:03.147Z,4.95
2023-02-17T05:18:31.317Z,3.83
2023-02-17T05:21:00.513Z,3.60
2023-02-17T05:23:28.500Z,2.95
2023-02-17T05:25:56.351Z,5.57
2023-02-17T05:28:24.200Z,4.80
2023-02-17T05:30:52.125Z,4.20
2023-02-17T05:33:20.018Z,6.03
2023-02-17T05:35:47.715Z,5.57
2023-02-17T05:38:16.924Z,5.45
2023-02-17T05:40:44.697Z,5.07
2023-02-17T05:43:12.612Z,4.78
2023-02-17T05:45:40.410Z,5.85
2023-02-17T05:48:08.270Z,6.13
2023-02-17T05:50:36.214Z,5.43
2023-02-17T05:53:04.419Z,6.45
2023-02-17T05:55:33.852Z,7.57
2023-02-17T05:58:01.795Z,7.35
2023-02-17T06:00:29.744Z,5.38
2023-02-17T06:02:57.713Z,6.68
2023-02-17T06:05:25.520Z,16.60
2023-02-17T06:07:53.373Z,7.32
2023-02-17T06:10:21.457Z,6.95
2023-02-17T06:12:50.641Z,6.95
2023-02-17T06:15:18.684Z,10.00
2023-02-17T06:17:46.555Z,7.10
2023-02-17T06:20:15.069Z,7.60
2023-02-17T06:22:43.297Z,8.50
2023-02-17T06:25:11.293Z,7.55
2023-02-17T06:27:39.175Z,8.95
2023-02-17T06:30:10.244Z,5.18
2023-02-17T06:32:38.219Z,6.13
2023-02-17T06:35:06.394Z,10.68
2023-02-17T06:37:34.208Z,4.82
2023-02-17T06:40:02.007Z,7.10
2023-02-17T06:42:30.390Z,8.55
2023-02-17T06:44:58.404Z,10.75
2023-02-17T06:47:27.815Z,10.77
2023-02-17T06:49:55.810Z,9.75
2023-02-17T06:52:23.804Z,11.23
2023-02-17T06:54:51.741Z,10.60
2023-02-17T06:57:20.853Z,9.10
2023-02-17T06:59:49.017Z,10.43
2023-02-17T07:02:17.480Z,10.85
2023-02-17T07:04:46.852Z,11.48
2023-02-17T07:07:14.786Z,11.73
2023-02-17T07:09:42.720Z,8.25
2023-02-17T07:12:10.808Z,8.70
2023-02-17T07:14:38.928Z,6.32
2023-02-17T07:17:06.881Z,8.80
2023-02-17T07:19:34.824Z,8.18
2023-02-17T07:22:06.982Z,9.10
2023-02-17T07:24:35.114Z,9.30
2023-02-17T07:27:03.400Z,7.35
2023-02-17T07:29:31.385Z,6.65
2023-02-17T07:31:59.237Z,9.38
2023-02-17T07:34:27.270Z,7.80
2023-02-17T07:36:55.198Z,12.77
2023-02-17T07:39:24.425Z,9.38
2023-02-17T07:41:52.600Z,10.85
2023-02-17T07:44:20.598Z,9.55
2023-02-17T07:46:48.655Z,10.95
2023-02-17T07:49:17.738Z,9.23
2023-02-17T07:51:45.908Z,9.13
2023-02-17T07:54:14.200Z,10.27
2023-02-17T07:56:43.645Z,11.00
2023-02-17T07:59:11.957Z,8.25
2023-02-17T08:01:39.993Z,9.32
2023-02-17T08:04:07.924Z,9.95
2023-02-17T08:06:36.088Z,11.27
2023-02-17T08:09:21.760Z,13.65
2023-02-17T08:12:08.753Z,9.45
2023-02-17T08:14:38.396Z,10.32
2023-02-17T08:17:19.992Z,11.45
2023-02-17T08:19:49.385Z,7.72
2023-02-17T08:22:17.883Z,9.00
2023-02-17T08:24:46.429Z,9.15
2023-02-17T08:27:16.773Z,8.15
2023-02-17T08:29:45.591Z,10.88
2023-02-17T08:32:14.577Z,8.93
2023-02-17T08:34:42.842Z,9.65
2023-02-17T08:37:11.557Z,7.57
2023-02-17T08:39:39.774Z,6.95
2023-02-17T08:42:07.759Z,9.13
2023-02-17T08:44:37.849Z,7.82
2023-02-17T08:47:06.719Z,9.27
2023-02-17T08:49:35.010Z,8.30
2023-02-17T08:52:03.487Z,7.72
2023-02-17T08:54:31.323Z,9.13
2023-02-17T08:56:59.576Z,6.40
2023-02-17T08:59:27.418Z,8.98
2023-02-17T09:01:56.841Z,6.10
2023-02-17T09:04:25.300Z,7.38
2023-02-17T09:06:56.617Z,5.78
2023-02-17T09:09:26.835Z,5.70
2023-02-17T09:11:56.221Z,4.68
2023-02-17T09:14:25.059Z,8.75
2023-02-17T09:16:54.193Z,5.18
2023-02-17T09:19:23.925Z,5.43
2023-02-17T09:21:51.919Z,4.45
2023-02-17T09:24:20.517Z,3.95
2023-02-17T09:26:48.332Z,5.60
2023-02-17T09:29:16.299Z,4.35
2023-02-17T09:31:45.619Z,5.57
2023-02-17T09:34:13.564Z,2.88
2023-02-17T09:36:43.667Z,5.22
2023-02-17T09:39:13.962Z,4.53
2023-02-17T09:41:47.267Z,4.28
2023-02-17T09:44:21.878Z,2.85
2023-02-17T09:47:02.124Z,4.63
2023-02-17T09:49:37.466Z,3.13
2023-02-17T09:52:13.938Z,3.95
2023-02-17T09:55:00.557Z,4.05
2023-02-17T09:57:30.548Z,4.70
2023-02-17T10:00:02.023Z,5.25
2023-02-17T10:02:42.858Z,3.53
2023-02-17T10:05:15.653Z,2.67
2023-02-17T10:07:49.774Z,4.85
2023-02-17T10:10:21.921Z,5.05
2023-02-17T10:12:53.963Z,5.80
2023-02-17T10:15:25.837Z,4.30
2023-02-17T10:18:00.516Z,2.88
2023-02-17T10:20:35.234Z,4.40
2023-02-17T10:23:17.866Z,5.80
2023-02-17T10:25:57.016Z,8.73
2023-02-17T10:28:39.638Z,7.55
2023-02-17T10:31:13.517Z,3.85
2023-02-17T10:33:49.110Z,5.38
2023-02-17T10:36:31.914Z,6.85
2023-02-17T10:39:09.749Z,6.22
2023-02-17T10:41:40.823Z,4.07
2023-02-17T10:44:14.144Z,4.30
2023-02-17T10:46:44.262Z,8.65
2023-02-17T10:49:20.409Z,6.55
2023-02-17T10:51:48.200Z,8.18
2023-02-17T10:54:28.858Z,11.32
2023-02-17T10:57:00.976Z,9.48
2023-02-17T10:59:32.516Z,7.72
2023-02-17T11:02:14.802Z,9.02
2023-02-17T11:04:43.850Z,8.90
2023-02-17T11:07:14.785Z,8.00
2023-02-17T11:09:50.361Z,8.73
2023-02-17T11:12:23.384Z,7.97
2023-02-17T11:14:54.440Z,8.73
2023-02-17T11:17:29.222Z,7.75
2023-02-17T11:19:59.604Z,11.05
2023-02-17T11:22:33.145Z,5.47
2023-02-17T11:25:04.181Z,9.15
2023-02-17T11:27:32.056Z,7.65
2023-02-17T11:30:08.980Z,9.60
2023-02-17T11:32:37.256Z,9.30
2023-02-17T11:35:06.513Z,5.90
2023-02-17T11:37:43.304Z,8.88
2023-02-17T11:40:26.581Z,6.13
2023-02-17T11:42:59.864Z,8.45
2023-02-17T11:45:33.458Z,6.95
2023-02-17T11:48:23.294Z,7.05
2023-02-17T11:50:58.542Z,10.48
2023-02-17T11:53:40.685Z,6.00
2023-02-17T11:56:17.964Z,5.40
2023-02-17T11:59:09.432Z,9.80
2023-02-17T12:01:55.946Z,8.27
2023-02-17T12:04:30.724Z,5.22
2023-02-17T12:07:16.071Z,6.47
2023-02-17T12:09:56.607Z,4.97
2023-02-17T12:12:37.842Z,4.32
2023-02-17T12:15:23.410Z,3.78
2023-02-17T12:18:01.495Z,3.90
2023-02-17T12:20:40.635Z,4.85
2023-02-17T12:23:25.690Z,5.45
2023-02-17T12:26:00.467Z,4.03
2023-02-17T12:28:48.528Z,4.38
2023-02-17T12:31:30.273Z,4.55
2023-02-17T12:34:03.703Z,3.38
2023-02-17T12:36:34.883Z,4.80
2023-02-17T12:39:14.734Z,3.83
2023-02-17T12:41:47.314Z,4.10
2023-02-17T12:44:21.230Z,8.52
2023-02-17T12:46:54.119Z,4.18
2023-02-17T12:49:32.236Z,4.13
2023-02-17T12:52:06.022Z,2.38
2023-02-17T12:54:43.525Z,3.22
2023-02-17T12:57:16.492Z,2.88
2023-02-17T12:59:48.021Z,5.40
2023-02-17T13:02:19.177Z,3.55
2023-02-17T13:04:51.304Z,3.47
2023-02-17T13:07:41.838Z,4.72
2023-02-17T13:10:20.482Z,4.57
2023-02-17T13:12:59.006Z,1.75
2023-02-17T13:15:34.509Z,2.38
2023-02-17T13:18:05.009Z,4.30
2023-02-17T13:23:40.778Z,1.80
2023-02-17T13:26:36.646Z,2.28
2023-02-17T13:29:20.723Z,2.35
2023-02-17T13:31:53.877Z,5.32
2023-02-17T13:34:31.414Z,2.35
2023-02-17T13:37:01.684Z,3.00
2023-02-17T13:39:39.239Z,3.20
2023-02-17T13:42:34.574Z,1.92
2023-02-17T13:45:02.630Z,2.00
2023-02-17T13:47:38.010Z,2.15
2023-02-17T13:50:07.486Z,3.40
2023-02-17T13:52:35.452Z,3.95
2023-02-17T13:55:06.919Z,2.95
2023-02-17T13:57:37.726Z,4.13
2023-02-17T14:00:11.545Z,4.55
2023-02-17T14:02:47.558Z,3.03
2023-02-17T14:05:20.418Z,3.08
2023-02-17T14:07:49.687Z,2.33
2023-02-17T14:10:21.063Z,2.35
2023-02-17T14:12:49.902Z,2.20
2023-02-17T14:15:19.507Z,3.15
2023-02-17T14:17:49.286Z,4.32
2023-02-17T14:20:33.477Z,4.60
2023-02-17T14:23:04.616Z,3.03
2023-02-17T14:25:34.866Z,2.60
2023-02-17T14:28:02.960Z,3.10
2023-02-17T14:30:33.530Z,2.60
2023-02-17T14:33:21.254Z,4.28
2023-02-17T14:35:55.309Z,3.47
2023-02-17T14:38:25.300Z,2.72
2023-02-17T14:40:55.756Z,2.55
2023-02-17T14:43:24.458Z,1.92
2023-02-17T14:45:52.755Z,2.70
2023-02-17T14:48:22.157Z,2.17
2023-02-17T14:50:53.967Z,2.38
2023-02-17T14:53:26.682Z,3.05
2023-02-17T14:55:59.614Z,2.90
2023-02-17T14:58:29.080Z,2.13
2023-02-17T15:00:57.335Z,1.67
2023-02-17T15:03:27.069Z,1.65
2023-02-17T15:05:56.029Z,2.58
2023-02-17T15:08:30.801Z,1.13
2023-02-17T15:10:58.768Z,3.97
2023-02-17T15:13:26.665Z,1.00
2023-02-17T15:15:54.737Z,1.13
2023-02-17T15:18:22.642Z,4.72
2023-02-17T15:20:53.068Z,4.32
2023-02-17T15:23:23.763Z,2.30
2023-02-17T15:25:53.610Z,6.20
2023-02-17T15:28:22.302Z,0.90
2023-02-17T15:30:52.948Z,1.85
2023-02-17T15:33:22.091Z,4.03
2023-02-17T15:35:54.563Z,4.90
2023-02-17T15:38:23.933Z,1.15
2023-02-17T15:40:52.208Z,0.98
2023-02-17T15:43:22.994Z,1.58
2023-02-17T15:45:51.314Z,2.72
2023-02-17T15:48:24.937Z,1.60
2023-02-17T15:50:54.605Z,1.85
2023-02-17T15:53:22.842Z,1.38
2023-02-17T15:55:51.134Z,1.98
2023-02-17T15:58:22.378Z,1.50
2023-02-17T16:00:51.213Z,1.50
2023-02-17T16:03:19.632Z,5.43
2023-02-17T16:05:47.902Z,0.90
2023-02-17T16:08:17.388Z,0.40
2023-02-17T16:10:46.749Z,3.33
2023-02-17T16:13:19.574Z,3.92
2023-02-17T16:15:48.843Z,1.35
2023-02-17T16:18:21.924Z,1.63
2023-02-17T16:20:50.073Z,0.98
2023-02-17T16:23:19.681Z,1.42
2023-02-17T16:25:49.298Z,2.60
2023-02-17T16:28:19.686Z,2.30
2023-02-17T16:30:49.446Z,0.88
2023-02-17T16:33:18.165Z,1.38
2023-02-17T16:35:46.659Z,8.43
2023-02-17T16:38:16.847Z,3.30
2023-02-17T16:40:48.491Z,1.65
2023-02-17T16:43:17.363Z,3.55
2023-02-17T16:45:53.083Z,2.28
2023-02-17T16:48:22.553Z,4.53
2023-02-17T16:50:50.488Z,3.92
2023-02-17T16:53:18.729Z,3.78
2023-02-17T16:55:48.276Z,1.95
2023-02-17T16:58:18.631Z,2.15
2023-02-17T17:00:49.825Z,5.75
2023-02-17T17:03:18.273Z,1.48
2023-02-17T17:05:46.833Z,1.02
2023-02-17T17:08:16.609Z,2.45
2023-02-17T17:10:47.116Z,2.30
2023-02-17T17:13:15.011Z,1.38
2023-02-17T17:15:45.207Z,1.50
2023-02-17T17:18:20.757Z,1.73
2023-02-17T17:20:49.009Z,1.17
2023-02-17T17:23:18.681Z,3.10
2023-02-17T17:25:48.703Z,2.92
2023-02-17T17:28:19.628Z,4.95
2023-02-17T17:30:48.246Z,0.68
2023-02-17T17:33:16.456Z,2.58
2023-02-17T17:35:44.275Z,2.60
2023-02-17T17:38:15.342Z,0.98
2023-02-17T17:40:53.428Z,5.22
2023-02-17T17:43:23.350Z,1.42
2023-02-17T17:45:54.682Z,1.55
2023-02-17T17:48:22.744Z,0.80
2023-02-17T17:50:51.008Z,4.03
2023-02-17T17:53:19.622Z,1.60
2023-02-17T17:55:47.912Z,3.42
2023-02-17T17:58:17.511Z,3.00
2023-02-17T18:00:45.710Z,1.30
2023-02-17T18:03:13.776Z,4.68
2023-02-17T18:05:41.651Z,2.67
2023-02-17T18:08:10.377Z,2.78
2023-02-17T18:10:40.073Z,6.43
2023-02-17T18:13:10.001Z,4.68
2023-02-17T18:15:41.164Z,1.65
2023-02-17T18:18:09.361Z,6.53
2023-02-17T18:20:37.566Z,0.28
2023-02-17T18:23:05.523Z,0.50
2023-02-17T18:25:33.473Z,2.60
2023-02-17T18:28:01.396Z,6.80
2023-02-17T18:30:29.398Z,1.38
2023-02-17T18:32:58.706Z,6.38
2023-02-17T18:35:26.920Z,1.25
2023-02-17T18:37:55.115Z,5.72
2023-02-17T18:40:23.398Z,4.97
2023-02-17T18:42:51.701Z,0.30
2023-02-17T18:45:19.980Z,6.15
2023-02-17T18:47:48.577Z,7.72
2023-02-17T18:50:17.873Z,5.18
2023-02-17T18:52:46.122Z,5.10
2023-02-17T18:55:14.930Z,5.20
2023-02-17T18:57:44.724Z,1.95
2023-02-17T19:00:16.799Z,3.97
2023-02-17T19:02:45.108Z,0.85
2023-02-17T19:05:13.620Z,3.33
2023-02-17T19:07:44.331Z,2.17
2023-02-17T19:10:13.353Z,2.55
2023-02-17T19:12:41.199Z,2.17
2023-02-17T19:15:09.473Z,3.30
2023-02-17T19:17:37.307Z,1.13
2023-02-17T19:20:05.805Z,1.10
2023-02-17T19:22:36.280Z,5.80
2023-02-17T19:25:06.409Z,1.75
2023-02-17T19:27:34.392Z,0.63
2023-02-17T19:30:02.307Z,1.98
2023-02-17T19:32:30.204Z,2.38
2023-02-17T19:34:58.312Z,1.65
2023-02-17T19:37:26.207Z,3.55
2023-02-17T19:39:54.441Z,1.17
2023-02-17T19:42:24.467Z,1.13
2023-02-17T19:44:52.534Z,2.05
2023-02-17T19:47:20.584Z,0.60
2023-02-17T19:49:48.887Z,6.78
2023-02-17T19:52:17.924Z,2.05
2023-02-17T19:54:46.169Z,3.83
2023-02-17T19:57:17.236Z,1.42
2023-02-17T19:59:46.826Z,3.03
2023-02-17T20:02:15.482Z,2.95
2023-02-17T20:04:44.590Z,2.42
2023-02-17T20:07:12.784Z,1.70
2023-02-17T20:09:40.673Z,3.38
2023-02-17T20:12:08.911Z,6.72
2023-02-17T20:14:36.960Z,3.35
2023-02-17T20:17:06.391Z,2.28
2023-02-17T20:19:38.346Z,5.18
2023-02-17T20:22:06.344Z,1.75
2023-02-17T20:24:35.105Z,5.28
2023-02-17T20:27:03.130Z,0.85
2023-02-17T20:29:31.220Z,2.00
2023-02-17T20:31:59.269Z,3.30
2023-02-17T20:34:31.302Z,7.43
2023-02-17T20:37:00.757Z,2.22
2023-02-17T20:39:29.150Z,2.65
2023-02-17T20:41:58.111Z,4.28
2023-02-17T20:44:27.992Z,6.45
2023-02-17T20:46:57.236Z,3.15
2023-02-17T20:49:26.173Z,2.78
2023-02-17T20:51:55.953Z,1.85
2023-02-17T20:54:25.426Z,4.40
2023-02-17T20:56:53.658Z,6.93
2023-02-17T20:59:21.733Z,5.68
2023-02-17T21:01:50.586Z,2.47
2023-02-17T21:04:18.734Z,4.47
2023-02-17T21:06:47.427Z,3.72
2023-02-17T21:09:19.151Z,3.03
2023-02-17T21:11:47.976Z,1.27
2023-02-17T21:14:16.249Z,1.58
2023-02-17T21:16:45.237Z,2.08
2023-02-17T21:19:13.701Z,4.10
2023-02-17T21:21:42.008Z,6.60
2023-02-17T21:24:09.926Z,5.13
2023-02-17T21:26:39.513Z,5.72
2023-02-17T21:29:07.580Z,3.13
2023-02-17T21:31:36.905Z,4.18
2023-02-17T21:34:05.102Z,4.55
2023-02-17T21:36:33.268Z,4.00
2023-02-17T21:39:01.153Z,0.55
2023-02-17T21:41:30.266Z,1.00
2023-02-17T21:44:17.232Z,3.33
2023-02-17T21:46:46.347Z,8.82
2023-02-17T21:49:14.716Z,3.15
2023-02-17T21:51:42.665Z,2.22
2023-02-17T21:54:11.314Z,7.28
2023-02-17T21:56:39.582Z,7.57
2023-02-17T21:59:09.313Z,5.25
2023-02-17T22:01:37.971Z,3.95
2023-02-17T22:04:06.820Z,2.97
2023-02-17T22:06:36.740Z,1.65
2023-02-17T22:09:06.281Z,2.28
2023-02-17T22:11:36.077Z,6.40
2023-02-17T22:14:05.863Z,6.05
2023-02-17T22:16:36.548Z,7.82
2023-02-17T22:19:06.351Z,3.08
2023-02-17T22:21:34.682Z,2.40
2023-02-17T22:24:02.919Z,3.00
2023-02-17T22:26:31.472Z,1.88
2023-02-17T22:28:59.472Z,4.60
2023-02-17T22:31:29.609Z,3.53
2023-02-17T22:34:00.482Z,1.98
2023-02-17T22:36:28.603Z,1.25
2023-02-17T22:38:56.607Z,2.38
2023-02-17T22:41:25.981Z,10.40
2023-02-17T22:43:54.989Z,1.70
2023-02-17T22:46:25.146Z,1.00
2023-02-17T22:48:53.395Z,7.65
2023-02-17T22:51:27.089Z,4.05
2023-02-17T22:53:55.006Z,2.40
2023-02-17T22:56:23.138Z,1.13
2023-02-17T22:58:56.392Z,2.67
2023-02-17T23:01:25.819Z,1.63
2023-02-17T23:03:55.099Z,2.88
2023-02-17T23:06:26.589Z,3.92
2023-02-17T23:08:55.272Z,4.35
2023-02-17T23:11:38.951Z,1.80
2023-02-17T23:14:07.027Z,5.82
2023-02-17T23:16:34.987Z,2.20
2023-02-17T23:19:02.900Z,2.30
2023-02-17T23:21:32.126Z,2.03
2023-02-17T23:23:59.959Z,5.25
2023-02-17T23:26:27.762Z,2.20
2023-02-17T23:28:55.959Z,3.55
2023-02-17T23:31:23.888Z,2.72
2023-02-17T23:33:51.962Z,1.63
2023-02-17T23:36:19.866Z,8.05
2023-02-17T23:38:49.055Z,2.92
2023-02-17T23:41:16.993Z,3.22
2023-02-17T23:43:44.788Z,4.90
2023-02-17T23:46:12.765Z,10.95
2023-02-17T23:48:40.787Z,1.80
2023-02-17T23:51:09.097Z,0.52
2023-02-17T23:53:37.059Z,2.97
2023-02-17T23:56:10.244Z,2.35
2023-02-17T23:58:38.284Z,3.17
